עמוד ראשי
METAR-TAF:

METAR-TAF

שדות תעופה :

Inverness, סקוטלנד

קו רוחב: 57-32N, קו אורך: 004-03W, גובה: 9מטר

תצפית מזג אוויר נוכחית

הדו"ח נערך לפני 54דקות, בשעה 14:50 UTC
רוח 26קשר מכיוון מערב/דרום-מערב
טמפרטורת 8 צלסיוס
לחות 71%
לחץ 1006 hPa
ראות: 5000מטר
מעט עננים בגובה 600רגל
עננים פזורים בגובה 2500רגל
עננים בינוניים בגובה 3100רגל
גשם,

METAR: EGPE 131450Z 25026KT 9999 5000S RA FEW006 SCT025 BKN031 08/03 Q1006

זמן: 16:44 (15:44 UTC)

תחזית

הדו"ח נערך לפני 1 שעות ו 44דקות, בשעה 14:00 UTC
תחזית בתוקף מ 13 ב 15 UTC עד 13 ב 24 UTC
רוח 18קשר מכיוון מערב/דרום-מערב עם משבים עד 30קשר
ראות 10 קילומטר או יותר
מעט עננים בגובה 3000רגל
זמנית מ -
13 ב 15 UTC עד 13 ב 24 UTC
ראות: 6000מטר
ממטרי גשם,

TAF: EGPE 131400Z 1315/1324 25018G30KT 9999 FEW030 TEMPO 1315/1324 6000 SHRA

תצפיות ותחזיות מזג אוויר לגבי יותר מ- 4,000 שדות תעופה ברחבי העולם. דוחות METAR ו- TAF.

התחנות הזמינות מסומנות בנקודות צהובות ואדומות על גבי המפה.

העבר את העכבר לנקודה הצבעונית על מנת לראות את שם התחנה.

לאחר מכן, לחץ כדי לראות את תוכן ואת תחזיות מזג האוויר.

כדי לשנות את המפה: לחץ על הכפתורים הירוקים עם הפלוס השחור כדי להתקרב; על הכפתור הירוק עם המקף כדי להתרחק; או בחיצים הירוקים למפות סמוכות.


METAR-TAF: